createdAt,value
2022-10-19T00:00:15.629Z,98068.47
2022-10-19T00:02:18.388Z,98081.78
2022-10-19T00:04:21.083Z,98073.94
2022-10-19T00:06:27.630Z,98069.63
2022-10-19T00:08:30.212Z,98080.53
2022-10-19T00:10:33.159Z,98079.06
2022-10-19T00:12:35.921Z,98068.16
2022-10-19T00:14:38.573Z,98070.88
2022-10-19T00:16:41.713Z,98073.63
2022-10-19T00:18:45.353Z,98074.41
2022-10-19T00:20:47.967Z,98072.16
2022-10-19T00:22:51.036Z,98066.03
2022-10-19T00:24:53.637Z,98073.09
2022-10-19T00:26:56.286Z,98070.81
2022-10-19T00:28:59.003Z,98080.94
2022-10-19T00:31:13.431Z,98074.69
2022-10-19T00:33:21.282Z,98076.94
2022-10-19T00:35:23.841Z,98079.19
2022-10-19T00:37:26.532Z,98085.91
2022-10-19T00:39:29.109Z,98085.91
2022-10-19T00:41:34.138Z,98085.13
2022-10-19T00:43:57.904Z,98087.53
2022-10-19T00:46:00.541Z,98092.19
2022-10-19T00:48:03.280Z,98087.06
2022-10-19T00:50:06.535Z,98082.09
2022-10-19T00:52:15.109Z,98089.91
2022-10-19T00:54:19.148Z,98093.47
2022-10-19T00:56:22.067Z,98108.56
2022-10-19T00:58:24.701Z,98108.56
2022-10-19T01:00:27.737Z,98111.28
2022-10-19T01:02:30.451Z,98127.00
2022-10-19T01:04:36.290Z,98118.81
2022-10-19T01:06:40.937Z,98128.59
2022-10-19T01:08:43.835Z,98125.53
2022-10-19T01:10:58.428Z,98128.94
2022-10-19T01:13:26.151Z,98121.06
2022-10-19T01:15:34.988Z,98133.44
2022-10-19T01:18:16.876Z,98142.41
2022-10-19T01:20:32.087Z,98146.59
2022-10-19T01:22:53.011Z,98136.16
2022-10-19T01:25:13.840Z,98132.63
2022-10-19T01:27:34.159Z,98133.13
2022-10-19T01:29:57.554Z,98142.72
2022-10-19T01:32:06.030Z,98136.63
2022-10-19T01:34:25.730Z,98144.16
2022-10-19T01:36:38.230Z,98134.88
2022-10-19T01:39:03.799Z,98159.41
2022-10-19T01:41:17.360Z,98152.81
2022-10-19T01:43:34.723Z,98149.28
2022-10-19T01:45:42.548Z,98144.03
2022-10-19T01:47:53.949Z,98160.03
2022-10-19T01:50:06.102Z,98160.84
2022-10-19T01:52:13.490Z,98165.97
2022-10-19T01:54:19.238Z,98170.63
2022-10-19T01:56:25.759Z,98166.78
2022-10-19T01:58:32.476Z,98168.72
2022-10-19T02:00:38.857Z,98172.22
2022-10-19T02:02:45.487Z,98163.91
2022-10-19T02:04:50.707Z,98174.03
2022-10-19T02:06:55.051Z,98176.41
2022-10-19T02:08:57.715Z,98189.56
2022-10-19T02:11:03.775Z,98175.13
2022-10-19T02:13:08.261Z,98172.09
2022-10-19T02:15:34.014Z,98173.56
2022-10-19T02:17:42.632Z,98177.06
2022-10-19T02:19:45.338Z,98186.06
2022-10-19T02:21:48.314Z,98185.09
2022-10-19T02:23:53.395Z,98189.44
2022-10-19T02:25:57.645Z,98183.97
2022-10-19T02:28:02.948Z,98190.91
2022-10-19T02:30:06.280Z,98182.38
2022-10-19T02:32:09.938Z,98180.59
2022-10-19T02:34:13.537Z,98179.00
2022-10-19T02:36:16.369Z,98175.47
2022-10-19T02:38:22.715Z,98184.47
2022-10-19T02:40:26.866Z,98168.59
2022-10-19T02:42:36.160Z,98181.88
2022-10-19T02:44:56.480Z,98183.50
2022-10-19T02:47:24.262Z,98180.28
2022-10-19T02:49:28.592Z,98184.47
2022-10-19T02:51:36.815Z,98186.06
2022-10-19T02:53:39.380Z,98184.94
2022-10-19T02:55:43.046Z,98175.00
2022-10-19T02:57:45.767Z,98193.91
2022-10-19T02:59:48.973Z,98183.81
2022-10-19T03:01:52.302Z,98166.66
2022-10-19T03:03:55.035Z,98187.00
2022-10-19T03:05:57.662Z,98188.13
2022-10-19T03:08:00.175Z,98196.31
2022-10-19T03:10:02.813Z,98185.75
2022-10-19T03:12:06.083Z,98185.38
2022-10-19T03:14:08.653Z,98194.06
2022-10-19T03:16:12.908Z,98198.06
2022-10-19T03:18:15.461Z,98198.88
2022-10-19T03:20:18.189Z,98194.53
2022-10-19T03:22:20.835Z,98200.78
2022-10-19T03:24:23.540Z,98203.19
2022-10-19T03:26:26.087Z,98207.69
2022-10-19T03:28:29.204Z,98207.38
2022-10-19T03:30:31.846Z,98199.19
2022-10-19T03:32:34.379Z,98200.78
2022-10-19T03:34:36.944Z,98207.06
2022-10-19T03:36:40.597Z,98202.72
2022-10-19T03:38:43.583Z,98209.44
2022-10-19T03:40:46.100Z,98209.13
2022-10-19T03:42:48.628Z,98215.38
2022-10-19T03:44:51.188Z,98226.28
2022-10-19T03:46:53.724Z,98227.09
2022-10-19T03:48:56.352Z,98225.63
2022-10-19T03:51:03.948Z,98229.66
2022-10-19T03:53:06.553Z,98240.59
2022-10-19T03:55:10.542Z,98235.91
2022-10-19T03:57:14.829Z,98235.56
2022-10-19T03:59:17.537Z,98236.06
2022-10-19T04:01:28.973Z,98246.50
2022-10-19T04:03:31.819Z,98241.50
2022-10-19T04:05:34.495Z,98245.50
2022-10-19T04:07:37.070Z,98249.06
2022-10-19T04:09:39.749Z,98258.34
2022-10-19T04:11:43.068Z,98253.69
2022-10-19T04:13:48.965Z,98252.41
2022-10-19T04:15:51.566Z,98260.94
2022-10-19T04:17:54.220Z,98264.78
2022-10-19T04:19:56.820Z,98262.84
2022-10-19T04:21:59.525Z,98266.72
2022-10-19T04:24:05.134Z,98283.75
2022-10-19T04:26:08.119Z,98269.63
2022-10-19T04:28:10.808Z,98276.69
2022-10-19T04:30:13.381Z,98273.31
2022-10-19T04:32:16.001Z,98276.06
2022-10-19T04:34:19.584Z,98275.72
2022-10-19T04:36:22.278Z,98277.31
2022-10-19T04:38:24.846Z,98272.00
2022-10-19T04:40:27.421Z,98272.31
2022-10-19T04:42:30.019Z,98269.38
2022-10-19T04:44:32.886Z,98278.84
2022-10-19T04:46:35.510Z,98281.59
2022-10-19T04:48:39.339Z,98284.78
2022-10-19T04:50:41.981Z,98281.28
2022-10-19T04:52:45.711Z,98281.44
2022-10-19T04:54:48.331Z,98295.72
2022-10-19T04:56:50.966Z,98295.41
2022-10-19T04:58:57.781Z,98293.16
2022-10-19T05:01:07.171Z,98288.97
2022-10-19T05:03:09.896Z,98279.19
2022-10-19T05:05:14.048Z,98273.06
2022-10-19T05:07:16.785Z,98274.00
2022-10-19T05:09:19.461Z,98278.50
2022-10-19T05:11:22.625Z,98272.69
2022-10-19T05:13:25.238Z,98272.84
2022-10-19T05:15:27.962Z,98277.63
2022-10-19T05:17:32.576Z,98288.25
2022-10-19T05:19:35.414Z,98272.66
2022-10-19T05:21:38.097Z,98280.53
2022-10-19T05:23:41.912Z,98271.84
2022-10-19T05:25:44.568Z,98279.69
2022-10-19T05:27:52.681Z,98284.53
2022-10-19T05:29:55.233Z,98293.53
2022-10-19T05:31:57.793Z,98289.16
2022-10-19T05:34:01.156Z,98294.31
2022-10-19T05:36:12.646Z,98292.06
2022-10-19T05:38:15.175Z,98290.59
2022-10-19T05:40:17.739Z,98292.34
2022-10-19T05:42:20.411Z,98291.69
2022-10-19T05:44:24.134Z,98287.03
2022-10-19T05:46:28.380Z,98287.97
2022-10-19T05:48:34.004Z,98295.97
2022-10-19T05:50:36.563Z,98288.59
2022-10-19T05:52:39.110Z,98295.31
2022-10-19T05:54:41.793Z,98294.97
2022-10-19T05:56:44.763Z,98298.53
2022-10-19T05:58:48.034Z,98308.50
2022-10-19T06:00:55.743Z,98300.78
2022-10-19T06:02:59.249Z,98302.72
2022-10-19T06:05:02.156Z,98301.59
2022-10-19T06:07:06.531Z,98303.38
2022-10-19T06:09:09.729Z,98315.09
2022-10-19T06:11:14.893Z,98315.25
2022-10-19T06:13:19.365Z,98311.84
2022-10-19T06:15:21.989Z,98321.47
2022-10-19T06:17:24.687Z,98310.53
2022-10-19T06:19:27.337Z,98316.78
2022-10-19T06:21:31.176Z,98308.28
2022-10-19T06:23:34.920Z,98315.63
2022-10-19T06:25:37.894Z,98304.03
2022-10-19T06:27:40.578Z,98299.50
2022-10-19T06:29:43.166Z,98292.72
2022-10-19T06:31:46.727Z,98297.03
2022-10-19T06:33:49.920Z,98301.97
2022-10-19T06:35:52.854Z,98308.50
2022-10-19T06:37:57.801Z,98304.44
2022-10-19T06:40:04.862Z,98310.19
2022-10-19T06:42:09.890Z,98305.50
2022-10-19T06:44:12.522Z,98302.00
2022-10-19T06:46:20.414Z,98307.94
2022-10-19T06:48:23.412Z,98299.56
2022-10-19T06:50:26.102Z,98305.47
2022-10-19T06:52:28.751Z,98310.13
2022-10-19T06:54:31.637Z,98311.50
2022-10-19T06:56:34.175Z,98300.31
2022-10-19T06:58:38.257Z,98302.56
2022-10-19T07:00:41.530Z,98301.41
2022-10-19T07:02:44.257Z,98299.66
2022-10-19T07:04:46.898Z,98304.44
2022-10-19T07:06:49.620Z,98302.03
2022-10-19T07:08:53.371Z,98312.06
2022-10-19T07:10:59.398Z,98309.44
2022-10-19T07:13:02.345Z,98308.44
2022-10-19T07:15:05.975Z,98304.88
2022-10-19T07:17:11.410Z,98314.66
2022-10-19T07:19:14.354Z,98299.84
2022-10-19T07:21:17.609Z,98313.94
2022-10-19T07:23:20.739Z,98316.91
2022-10-19T07:25:23.679Z,98313.50
2022-10-19T07:27:26.706Z,98316.72
2022-10-19T07:29:29.805Z,98318.13
2022-10-19T07:31:33.280Z,98313.22
2022-10-19T07:33:37.079Z,98315.44
2022-10-19T07:35:40.005Z,98318.34
2022-10-19T07:37:42.775Z,98308.53
2022-10-19T07:39:45.453Z,98310.41
2022-10-19T07:41:48.289Z,98314.06
2022-10-19T07:43:52.149Z,98312.00
2022-10-19T07:45:59.797Z,98317.56
2022-10-19T07:48:02.382Z,98322.59
2022-10-19T07:50:05.277Z,98319.41
2022-10-19T07:52:07.894Z,98311.16
2022-10-19T07:54:10.476Z,98320.84
2022-10-19T07:56:15.769Z,98330.38
2022-10-19T07:58:18.456Z,98329.31
2022-10-19T08:00:21.196Z,98332.06
2022-10-19T08:02:30.787Z,98328.38
2022-10-19T08:04:59.408Z,98329.53
2022-10-19T08:07:03.967Z,98320.38
2022-10-19T08:09:06.816Z,98323.91
2022-10-19T08:11:15.770Z,98312.84
2022-10-19T08:13:18.341Z,98313.66
2022-10-19T08:15:20.959Z,98311.72
2022-10-19T08:17:23.729Z,98318.44
2022-10-19T08:19:26.388Z,98310.22
2022-10-19T08:21:30.534Z,98322.84
2022-10-19T08:23:33.124Z,98324.91
2022-10-19T08:25:37.323Z,98331.81
2022-10-19T08:27:39.983Z,98338.22
2022-10-19T08:29:42.523Z,98329.78
2022-10-19T08:31:46.289Z,98329.69
2022-10-19T08:33:52.267Z,98329.72
2022-10-19T08:35:54.871Z,98313.53
2022-10-19T08:37:58.717Z,98329.06
2022-10-19T08:40:01.489Z,98331.16
2022-10-19T08:42:16.415Z,98334.13
2022-10-19T08:44:37.409Z,98327.50
2022-10-19T08:46:48.805Z,98347.25
2022-10-19T08:48:52.359Z,98341.75
2022-10-19T08:50:56.928Z,98346.66
2022-10-19T08:53:03.927Z,98333.53
2022-10-19T08:55:18.200Z,98332.28
2022-10-19T08:57:37.985Z,98335.91
2022-10-19T08:59:48.754Z,98327.56
2022-10-19T09:01:57.004Z,98330.88
2022-10-19T09:04:05.993Z,98321.66
2022-10-19T09:06:20.550Z,98322.81
2022-10-19T09:08:23.415Z,98305.94
2022-10-19T09:10:32.119Z,98316.09
2022-10-19T09:12:55.133Z,98313.13
2022-10-19T09:15:06.073Z,98315.09
2022-10-19T09:17:16.125Z,98320.91
2022-10-19T09:19:26.124Z,98321.34
2022-10-19T09:21:54.593Z,98319.06
2022-10-19T09:24:06.970Z,98321.00
2022-10-19T09:26:15.648Z,98317.47
2022-10-19T09:28:36.677Z,98322.47
2022-10-19T09:30:46.050Z,98326.03
2022-10-19T09:33:00.520Z,98318.16
2022-10-19T09:35:15.835Z,98314.25
2022-10-19T09:37:25.945Z,98312.91
2022-10-19T09:39:30.986Z,98320.44
2022-10-19T09:41:34.093Z,98325.13
2022-10-19T09:43:38.330Z,98319.75
2022-10-19T09:46:11.669Z,98317.47
2022-10-19T09:48:31.333Z,98322.94
2022-10-19T09:50:33.934Z,98307.53
2022-10-19T09:52:39.928Z,98317.22
2022-10-19T09:54:42.551Z,98321.09
2022-10-19T09:56:54.012Z,98317.47
2022-10-19T09:58:58.837Z,98316.22
2022-10-19T10:01:02.577Z,98291.50
2022-10-19T10:03:06.359Z,98316.53
2022-10-19T10:05:15.374Z,98306.72
2022-10-19T10:07:18.780Z,98307.38
2022-10-19T10:09:27.462Z,98301.91
2022-10-19T10:11:40.780Z,98299.16
2022-10-19T10:13:49.744Z,98294.72
2022-10-19T10:15:57.992Z,98299.72
2022-10-19T10:18:00.869Z,98305.09
2022-10-19T10:20:21.054Z,98303.84
2022-10-19T10:22:31.309Z,98304.19
2022-10-19T10:24:34.851Z,98294.84
2022-10-19T10:26:43.536Z,98290.16
2022-10-19T10:28:51.670Z,98281.16
2022-10-19T10:31:06.698Z,98278.72
2022-10-19T10:33:33.277Z,98286.38
2022-10-19T10:35:53.719Z,98289.22
2022-10-19T10:38:08.034Z,98284.22
2022-10-19T10:40:24.544Z,98283.88
2022-10-19T10:42:30.692Z,98292.91
2022-10-19T10:44:36.816Z,98287.09
2022-10-19T10:46:52.587Z,98290.94
2022-10-19T10:48:59.000Z,98287.09
2022-10-19T10:51:02.284Z,98283.66
2022-10-19T10:53:26.849Z,98278.19
2022-10-19T10:55:31.155Z,98281.72
2022-10-19T10:57:46.192Z,98282.16
2022-10-19T11:00:21.708Z,98278.41
2022-10-19T11:02:29.793Z,98283.00
2022-10-19T11:04:38.845Z,98280.81
2022-10-19T11:06:47.737Z,98277.75
2022-10-19T11:08:57.111Z,98283.09
2022-10-19T11:11:21.029Z,98281.84
2022-10-19T11:13:33.636Z,98269.50
2022-10-19T11:16:16.957Z,98291.53
2022-10-19T11:18:39.740Z,98284.09
2022-10-19T11:21:05.970Z,98286.06
2022-10-19T11:23:41.896Z,98281.03
2022-10-19T11:26:03.205Z,98281.50
2022-10-19T11:28:17.953Z,98277.84
2022-10-19T11:30:22.945Z,98283.66
2022-10-19T11:32:40.612Z,98284.47
2022-10-19T11:35:04.905Z,98280.91
2022-10-19T11:37:49.830Z,98274.63
2022-10-19T11:40:22.872Z,98274.31
2022-10-19T11:45:23.286Z,98262.09
2022-10-19T11:47:43.474Z,98264.25
2022-10-19T11:49:59.751Z,98265.03
2022-10-19T11:52:13.564Z,98267.69
2022-10-19T11:54:39.472Z,98267.22
2022-10-19T11:57:04.714Z,98262.06
2022-10-19T11:59:27.409Z,98268.34
2022-10-19T12:01:54.809Z,98264.81
2022-10-19T12:04:30.539Z,98258.78
2022-10-19T12:06:47.859Z,98261.50
2022-10-19T12:08:56.086Z,98251.81
2022-10-19T12:11:36.514Z,98251.34
2022-10-19T12:13:56.532Z,98248.13
2022-10-19T12:16:01.089Z,98259.66
2022-10-19T12:18:32.488Z,98262.75
2022-10-19T12:20:40.175Z,98251.81
2022-10-19T12:22:43.361Z,98259.09
2022-10-19T12:24:46.670Z,98257.16
2022-10-19T12:26:51.767Z,98261.03
2022-10-19T12:28:58.712Z,98256.13
2022-10-19T12:31:02.804Z,98252.91
2022-10-19T12:33:26.367Z,98257.16
2022-10-19T12:35:43.932Z,98255.41
2022-10-19T12:38:00.243Z,98256.22
2022-10-19T12:40:08.957Z,98257.69
2022-10-19T12:42:35.903Z,98260.44
2022-10-19T12:45:01.845Z,98253.69
2022-10-19T12:47:16.042Z,98267.38
2022-10-19T12:49:30.557Z,98269.19
2022-10-19T12:51:46.307Z,98265.09
2022-10-19T12:53:50.055Z,98266.56
2022-10-19T12:56:25.847Z,98267.59
2022-10-19T12:58:36.748Z,98262.63
2022-10-19T13:00:39.485Z,98264.91
2022-10-19T13:02:42.943Z,98269.13
2022-10-19T13:04:53.688Z,98259.31
2022-10-19T13:07:10.770Z,98267.06
2022-10-19T13:09:39.940Z,98265.81
2022-10-19T13:12:21.936Z,98274.00
2022-10-19T13:14:48.548Z,98273.88
2022-10-19T13:17:03.725Z,98272.28
2022-10-19T13:19:12.498Z,98264.25
2022-10-19T13:21:54.498Z,98270.16
2022-10-19T13:24:26.002Z,98282.56
2022-10-19T13:26:35.799Z,98272.78
2022-10-19T13:28:39.628Z,98270.38
2022-10-19T13:30:42.370Z,98274.84
2022-10-19T13:32:46.026Z,98277.44
2022-10-19T13:34:49.423Z,98278.44
2022-10-19T13:37:03.086Z,98275.69
2022-10-19T13:39:11.782Z,98267.16
2022-10-19T13:41:26.521Z,98261.44
2022-10-19T13:43:44.021Z,98276.31
2022-10-19T13:46:13.108Z,98280.84
2022-10-19T13:48:27.979Z,98285.03
2022-10-19T13:50:57.555Z,98293.09
2022-10-19T13:53:27.641Z,98284.09
2022-10-19T13:55:52.078Z,98283.31
2022-10-19T13:58:14.315Z,98287.53
2022-10-19T14:00:22.101Z,98283.84
2022-10-19T14:02:50.660Z,98281.44
2022-10-19T14:05:11.922Z,98294.00
2022-10-19T14:07:23.742Z,98287.25
2022-10-19T14:10:00.978Z,98283.25
2022-10-19T14:12:13.779Z,98291.47
2022-10-19T14:14:20.897Z,98293.84
2022-10-19T14:16:24.086Z,98288.06
2022-10-19T14:18:30.871Z,98287.25
2022-10-19T14:20:39.419Z,98288.72
2022-10-19T14:22:42.078Z,98297.25
2022-10-19T14:24:44.636Z,98292.78
2022-10-19T14:26:47.578Z,98299.88
2022-10-19T14:28:57.850Z,98291.66
2022-10-19T14:31:01.910Z,98301.50
2022-10-19T14:33:10.867Z,98305.75
2022-10-19T14:35:27.445Z,98303.28
2022-10-19T14:37:30.304Z,98313.75
2022-10-19T14:39:34.498Z,98307.13
2022-10-19T14:41:37.747Z,98314.53
2022-10-19T14:43:40.431Z,98310.22
2022-10-19T14:45:43.315Z,98312.59
2022-10-19T14:47:53.328Z,98316.50
2022-10-19T14:49:56.596Z,98314.44
2022-10-19T14:52:03.087Z,98307.72
2022-10-19T14:54:12.774Z,98312.84
2022-10-19T14:56:25.171Z,98314.09
2022-10-19T14:58:31.631Z,98307.34
2022-10-19T15:00:34.515Z,98308.91
2022-10-19T15:02:46.834Z,98289.88
2022-10-19T15:04:52.085Z,98311.00
2022-10-19T15:06:55.542Z,98313.06
2022-10-19T15:09:15.353Z,98315.13
2022-10-19T15:11:38.916Z,98317.88
2022-10-19T15:13:43.054Z,98318.69
2022-10-19T15:15:52.261Z,98319.00
2022-10-19T15:18:01.146Z,98300.38
2022-10-19T15:20:04.915Z,98298.41
2022-10-19T15:22:17.027Z,98300.38
2022-10-19T15:24:27.980Z,98303.09
2022-10-19T15:26:31.414Z,98298.41
2022-10-19T15:28:40.577Z,98271.34
2022-10-19T15:30:44.432Z,98304.84
2022-10-19T15:32:54.219Z,98305.63
2022-10-19T15:34:56.859Z,98304.03
2022-10-19T15:37:03.655Z,98305.31
2022-10-19T15:39:33.091Z,98310.09
2022-10-19T15:41:40.821Z,98305.75
2022-10-19T15:43:47.470Z,98312.69
2022-10-19T15:46:02.442Z,98309.63
2022-10-19T15:48:10.841Z,98311.22
2022-10-19T15:50:32.019Z,98311.56
2022-10-19T15:52:34.896Z,98314.03
2022-10-19T15:54:37.644Z,98315.50
2022-10-19T15:56:40.674Z,98313.22
2022-10-19T15:58:43.383Z,98305.19
2022-10-19T16:00:46.072Z,98307.47
2022-10-19T16:02:48.726Z,98308.78
2022-10-19T16:04:55.236Z,98308.78
2022-10-19T16:06:57.936Z,98302.06
2022-10-19T16:09:01.169Z,98309.13
2022-10-19T16:11:04.501Z,98307.06
2022-10-19T16:13:07.148Z,98304.16
2022-10-19T16:15:14.318Z,98301.09
2022-10-19T16:17:17.138Z,98305.97
2022-10-19T16:19:19.877Z,98305.50
2022-10-19T16:21:27.779Z,98308.53
2022-10-19T16:23:33.701Z,98304.53
2022-10-19T16:25:38.129Z,98299.59
2022-10-19T16:27:41.211Z,98306.50
2022-10-19T16:29:44.851Z,98314.09
2022-10-19T16:31:47.546Z,98316.66
2022-10-19T16:33:50.350Z,98311.88
2022-10-19T16:35:53.447Z,98319.09
2022-10-19T16:37:56.128Z,98320.25
2022-10-19T16:39:58.806Z,98323.94
2022-10-19T16:42:01.599Z,98315.75
2022-10-19T16:44:04.361Z,98320.88
2022-10-19T16:46:07.458Z,98321.53
2022-10-19T16:48:12.892Z,98317.03
2022-10-19T16:50:15.482Z,98319.44
2022-10-19T16:52:18.167Z,98308.19
2022-10-19T16:54:20.830Z,98307.56
2022-10-19T16:56:25.687Z,98310.47
2022-10-19T16:58:28.359Z,98312.56
2022-10-19T17:00:31.155Z,98309.88
2022-10-19T17:02:33.969Z,98311.00
2022-10-19T17:04:37.073Z,98321.78
2022-10-19T17:06:40.938Z,98316.94
2022-10-19T17:09:23.289Z,98313.13
2022-10-19T17:11:18.633Z,98315.84
2022-10-19T17:13:21.447Z,98311.22
2022-10-19T17:15:41.964Z,98320.03
2022-10-19T17:17:45.412Z,98324.38
2022-10-19T17:19:48.949Z,98327.91
2022-10-19T17:21:51.598Z,98323.88
2022-10-19T17:23:56.609Z,98330.63
2022-10-19T17:25:59.317Z,98325.16
2022-10-19T17:28:01.927Z,98323.28
2022-10-19T17:30:04.913Z,98331.59
2022-10-19T17:32:07.613Z,98330.78
2022-10-19T17:34:10.899Z,98329.34
2022-10-19T17:36:16.686Z,98325.66
2022-10-19T17:38:19.453Z,98329.53
2022-10-19T17:40:22.233Z,98334.31
2022-10-19T17:42:25.031Z,98326.44
2022-10-19T17:44:28.980Z,98327.25
2022-10-19T17:46:35.029Z,98340.56
2022-10-19T17:48:39.357Z,98341.53
2022-10-19T17:50:42.027Z,98319.88
2022-10-19T17:52:44.726Z,98334.81
2022-10-19T17:54:54.707Z,98325.81
2022-10-19T17:57:10.085Z,98332.38
2022-10-19T17:59:13.662Z,98333.53
2022-10-19T18:01:19.240Z,98332.06
2022-10-19T18:03:25.963Z,98338.66
2022-10-19T18:05:28.601Z,98335.47
2022-10-19T18:07:32.329Z,98330.47
2022-10-19T18:09:35.076Z,98328.88
2022-10-19T18:11:41.444Z,98335.75
2022-10-19T18:13:44.956Z,98334.97
2022-10-19T18:15:47.801Z,98328.25
2022-10-19T18:17:50.436Z,98334.00
2022-10-19T18:19:53.064Z,98329.03
2022-10-19T18:21:55.762Z,98334.81
2022-10-19T18:24:00.800Z,98339.63
2022-10-19T18:26:06.243Z,98333.38
2022-10-19T18:28:09.047Z,98332.41
2022-10-19T18:30:12.029Z,98330.31
2022-10-19T18:32:14.614Z,98336.22
2022-10-19T18:34:19.629Z,98328.50
2022-10-19T18:36:23.385Z,98329.81
2022-10-19T18:38:26.046Z,98327.25
2022-10-19T18:40:29.222Z,98319.19
2022-10-19T18:42:32.212Z,98329.94
2022-10-19T18:44:35.030Z,98334.09
2022-10-19T18:46:37.944Z,98339.38
2022-10-19T18:48:40.531Z,98336.97
2022-10-19T18:50:43.158Z,98339.38
2022-10-19T18:52:45.831Z,98337.78
2022-10-19T18:54:48.449Z,98337.59
2022-10-19T18:56:51.061Z,98347.06
2022-10-19T18:58:53.758Z,98343.03
2022-10-19T19:01:08.789Z,98344.34
2022-10-19T19:03:11.495Z,98346.75
2022-10-19T19:05:14.984Z,98347.25
2022-10-19T19:07:19.524Z,98352.03
2022-10-19T19:09:22.612Z,98356.41
2022-10-19T19:11:33.057Z,98354.94
2022-10-19T19:13:39.505Z,98349.81
2022-10-19T19:15:42.752Z,98350.00
2022-10-19T19:17:45.384Z,98351.09
2022-10-19T19:19:48.122Z,98354.13
2022-10-19T19:21:50.780Z,98349.16
2022-10-19T19:23:55.172Z,98353.19
2022-10-19T19:25:57.811Z,98347.72
2022-10-19T19:28:00.503Z,98338.44
2022-10-19T19:30:05.201Z,98349.19
2022-10-19T19:32:08.602Z,98351.28
2022-10-19T19:34:11.588Z,98353.69
2022-10-19T19:36:15.970Z,98343.59
2022-10-19T19:38:18.837Z,98344.06
2022-10-19T19:40:21.431Z,98356.28
2022-10-19T19:42:27.786Z,98360.09
2022-10-19T19:44:31.162Z,98361.72
2022-10-19T19:46:33.894Z,98363.03
2022-10-19T19:48:37.594Z,98360.81
2022-10-19T19:50:40.235Z,98367.03
2022-10-19T19:52:43.597Z,98364.81
2022-10-19T19:54:46.512Z,98361.09
2022-10-19T19:56:54.350Z,98367.22
2022-10-19T19:58:59.487Z,98364.34
2022-10-19T20:01:12.279Z,98363.06
2022-10-19T20:03:17.018Z,98370.41
2022-10-19T20:05:20.298Z,98360.31
2022-10-19T20:07:23.450Z,98369.63
2022-10-19T20:09:27.090Z,98364.81
2022-10-19T20:11:30.837Z,98369.13
2022-10-19T20:13:34.442Z,98364.31
2022-10-19T20:15:40.210Z,98371.72
2022-10-19T20:17:43.054Z,98369.13
2022-10-19T20:19:45.726Z,98368.78
2022-10-19T20:21:48.447Z,98373.44
2022-10-19T20:23:52.446Z,98378.25
2022-10-19T20:25:56.502Z,98370.69
2022-10-19T20:27:59.204Z,98366.38
2022-10-19T20:30:02.207Z,98371.00
2022-10-19T20:32:06.297Z,98379.50
2022-10-19T20:34:14.256Z,98380.63
2022-10-19T20:36:18.449Z,98380.59
2022-10-19T20:38:21.126Z,98375.16
2022-10-19T20:40:24.085Z,98379.97
2022-10-19T20:42:27.963Z,98379.63
2022-10-19T20:44:30.572Z,98374.53
2022-10-19T20:46:33.585Z,98378.34
2022-10-19T20:48:36.879Z,98383.31
2022-10-19T20:50:40.699Z,98375.47
2022-10-19T20:52:43.619Z,98376.91
2022-10-19T20:54:48.341Z,98382.19
2022-10-19T20:56:52.630Z,98372.91
2022-10-19T20:58:58.671Z,98373.19
2022-10-19T21:01:18.635Z,98373.38
2022-10-19T21:03:23.924Z,98379.31
2022-10-19T21:05:27.106Z,98377.41
2022-10-19T21:07:30.172Z,98375.81
2022-10-19T21:09:33.217Z,98372.13
2022-10-19T21:11:56.002Z,98365.53
2022-10-19T21:14:03.880Z,98366.34
2022-10-19T21:16:16.013Z,98372.59
2022-10-19T21:18:19.596Z,98372.59
2022-10-19T21:20:22.593Z,98370.69
2022-10-19T21:22:25.447Z,98362.81
2022-10-19T21:24:32.681Z,98371.00
2022-10-19T21:26:36.871Z,98372.13
2022-10-19T21:28:41.758Z,98374.84
2022-10-19T21:30:44.878Z,98373.22
2022-10-19T21:32:48.518Z,98374.97
2022-10-19T21:34:51.628Z,98378.19
2022-10-19T21:36:55.449Z,98382.06
2022-10-19T21:38:58.451Z,98380.91
2022-10-19T21:41:06.965Z,98387.50
2022-10-19T21:43:11.530Z,98389.44
2022-10-19T21:45:30.821Z,98382.16
2022-10-19T21:47:34.268Z,98402.88
2022-10-19T21:49:37.333Z,98407.34
2022-10-19T21:51:44.597Z,98409.28
2022-10-19T21:53:47.663Z,98400.75
2022-10-19T21:55:52.082Z,98402.84
2022-10-19T21:57:54.887Z,98399.31
2022-10-19T21:59:57.621Z,98411.34
2022-10-19T22:02:00.342Z,98411.50
2022-10-19T22:04:06.589Z,98406.66
2022-10-19T22:06:10.455Z,98406.81
2022-10-19T22:08:13.194Z,98410.47
2022-10-19T22:10:15.982Z,98411.75
2022-10-19T22:12:18.727Z,98413.47
2022-10-19T22:14:21.483Z,98413.78
2022-10-19T22:16:25.428Z,98416.84
2022-10-19T22:18:28.136Z,98415.53
2022-10-19T22:20:30.821Z,98415.06
2022-10-19T22:22:33.939Z,98416.16
2022-10-19T22:24:37.199Z,98418.88
2022-10-19T22:26:46.191Z,98426.75
2022-10-19T22:28:49.240Z,98425.13
2022-10-19T22:30:57.157Z,98418.56
2022-10-19T22:32:59.883Z,98429.97
2022-10-19T22:35:02.551Z,98431.84
2022-10-19T22:37:05.783Z,98425.63
2022-10-19T22:39:08.870Z,98427.53
2022-10-19T22:41:11.619Z,98433.19
2022-10-19T22:43:14.283Z,98428.84
2022-10-19T22:45:17.227Z,98426.41
2022-10-19T22:47:19.878Z,98438.13
2022-10-19T22:49:22.974Z,98438.28
2022-10-19T22:51:25.784Z,98445.03
2022-10-19T22:53:28.480Z,98441.72
2022-10-19T22:55:31.209Z,98442.50
2022-10-19T22:57:33.936Z,98443.78
2022-10-19T22:59:36.646Z,98432.59
2022-10-19T23:01:39.263Z,98434.50
2022-10-19T23:03:42.305Z,98441.72
2022-10-19T23:05:45.005Z,98425.31
2022-10-19T23:07:47.788Z,98434.78
2022-10-19T23:09:50.570Z,98428.97
2022-10-19T23:11:53.303Z,98443.09
2022-10-19T23:13:55.935Z,98450.47
2022-10-19T23:15:58.743Z,98457.00
2022-10-19T23:18:01.399Z,98441.78
2022-10-19T23:20:04.302Z,98444.03
2022-10-19T23:22:07.052Z,98450.25
2022-10-19T23:24:09.761Z,98447.53
2022-10-19T23:26:15.260Z,98457.00
2022-10-19T23:28:17.907Z,98454.91
2022-10-19T23:30:20.656Z,98455.22
2022-10-19T23:32:23.272Z,98451.69
2022-10-19T23:34:25.971Z,98456.16
2022-10-19T23:36:29.771Z,98443.31
2022-10-19T23:38:32.426Z,98455.47
2022-10-19T23:40:35.146Z,98451.47
2022-10-19T23:42:37.800Z,98451.59
2022-10-19T23:44:40.371Z,98453.19
2022-10-19T23:46:42.980Z,98450.13
2022-10-19T23:48:45.664Z,98458.56
2022-10-19T23:50:59.263Z,98457.59
2022-10-19T23:53:02.216Z,98454.19
2022-10-19T23:55:05.345Z,98461.56
2022-10-19T23:57:07.907Z,98456.25
2022-10-19T23:59:10.590Z,98468.09
